Time;durP1;ratioP1;P1;durP2;ratioP2;P2;SDS_P1;SDS_P2;PMS_P1;PMS_P2;Temp;Humidity;BMP_temperature;BMP_pressure;BME280_temperature;BME280_humidity;BME280_pressure;Samples;Min_cycle;Max_cycle;Signal;HPM_P1;HPM_P2
2022/10/05 00:01:33;;;;;;;6.65;4.68;;;17.00;99.90;;;;;;5017973;28;20291;-89
2022/10/05 00:04:14;;;;;;;6.28;5.68;;;17.00;99.90;;;;;;5017395;28;20225;-90
2022/10/05 00:06:49;;;;;;;13.75;5.50;;;17.00;99.90;;;;;;5016663;28;20196;-85
2022/10/05 00:09:19;;;;;;;12.15;6.35;;;17.10;99.90;;;;;;5016672;28;20255;-90
2022/10/05 00:11:45;;;;;;;10.18;5.47;;;17.10;99.90;;;;;;5016263;28;20181;-90
2022/10/05 00:14:17;;;;;;;5.60;5.00;;;17.20;99.90;;;;;;5016762;28;20188;-88
2022/10/05 00:16:43;;;;;;;8.85;5.93;;;17.20;99.90;;;;;;5016670;28;20173;-90
2022/10/05 00:19:33;;;;;;;7.35;5.68;;;17.20;99.90;;;;;;5016967;28;20553;-87
2022/10/05 00:22:10;;;;;;;7.43;5.65;;;16.90;99.90;;;;;;5011295;28;20209;-86
2022/10/05 00:24:35;;;;;;;8.32;5.85;;;16.90;99.90;;;;;;5016625;28;20242;-88
2022/10/05 00:27:13;;;;;;;6.10;5.50;;;16.90;99.90;;;;;;5016011;28;20258;-90
2022/10/05 00:29:39;;;;;;;14.30;5.68;;;16.90;99.90;;;;;;5016298;28;20157;-83
2022/10/05 00:32:04;;;;;;;7.70;5.72;;;17.00;99.90;;;;;;5015672;28;20593;-88
2022/10/05 00:34:33;;;;;;;9.43;5.70;;;17.00;99.90;;;;;;5016522;28;20161;-90
2022/10/05 00:36:58;;;;;;;13.23;5.95;;;17.00;99.90;;;;;;5016341;28;20169;-90
2022/10/05 00:39:24;;;;;;;6.60;4.97;;;17.00;99.90;;;;;;5016070;28;20171;-90
2022/10/05 00:42:28;;;;;;;7.95;5.53;;;17.00;99.90;;;;;;5015503;28;20197;-88
2022/10/05 00:45:10;;;;;;;7.78;5.82;;;17.10;99.90;;;;;;5010131;28;20169;-88
2022/10/05 00:47:57;;;;;;;7.82;4.93;;;16.90;99.90;;;;;;5014719;28;20306;-89
2022/10/05 00:50:53;;;;;;;7.15;5.57;;;16.90;99.90;;;;;;5014797;28;20203;-89
2022/10/05 00:53:38;;;;;;;6.88;4.45;;;16.70;99.90;;;;;;5015096;28;20184;-91
2022/10/05 00:56:10;;;;;;;5.47;4.97;;;16.50;99.90;;;;;;5015001;28;20168;-90
2022/10/05 00:58:55;;;;;;;7.80;4.90;;;16.50;99.90;;;;;;5015888;28;20175;-89
2022/10/05 01:01:31;;;;;;;11.07;5.72;;;16.50;99.90;;;;;;5015864;28;20184;-91
2022/10/05 01:04:13;;;;;;;5.93;5.30;;;16.60;99.90;;;;;;5014817;28;20174;-90
2022/10/05 01:07:13;;;;;;;6.78;5.13;;;16.60;99.90;;;;;;5014206;28;20540;-90
2022/10/05 01:09:41;;;;;;;5.22;4.72;;;16.70;99.90;;;;;;5015413;28;20175;-91
2022/10/05 01:12:22;;;;;;;6.10;5.47;;;16.60;99.90;;;;;;5015365;28;20184;-89
2022/10/05 01:15:13;;;;;;;5.18;4.78;;;16.70;99.90;;;;;;5015621;28;20247;-89
2022/10/05 01:17:58;;;;;;;5.53;4.93;;;16.70;99.90;;;;;;5015726;28;20172;-86
2022/10/05 01:20:58;;;;;;;6.50;4.90;;;16.50;99.90;;;;;;5015384;28;20152;-89
2022/10/05 01:23:53;;;;;;;7.65;5.22;;;16.60;99.90;;;;;;5006373;28;20192;-90
2022/10/05 01:26:18;;;;;;;6.30;5.03;;;16.50;99.90;;;;;;5014609;28;20216;-90
2022/10/05 01:29:00;;;;;;;7.75;5.93;;;16.60;99.90;;;;;;5015169;28;20234;-86
2022/10/05 01:31:44;;;;;;;5.20;4.80;;;16.50;99.90;;;;;;5014049;28;20192;-90
2022/10/05 01:34:30;;;;;;;5.70;5.20;;;16.50;99.90;;;;;;5015180;28;20168;-88
2022/10/05 01:36:56;;;;;;;5.72;5.22;;;16.40;99.90;;;;;;5015003;28;20168;-90
2022/10/05 01:39:39;;;;;;;7.32;5.55;;;16.40;99.90;;;;;;5015143;28;20168;-88
2022/10/05 01:42:32;;;;;;;15.73;5.00;;;16.50;99.90;;;;;;5014846;28;20670;-90
2022/10/05 01:45:20;;;;;;;9.55;5.60;;;16.40;99.90;;;;;;5015120;28;20164;-90
2022/10/05 01:48:10;;;;;;;6.80;5.43;;;16.40;99.90;;;;;;5014308;28;20629;-85
2022/10/05 01:51:35;;;;;;;6.00;4.85;;;16.50;99.90;;;;;;5007372;28;20211;-87
2022/10/05 01:54:12;;;;;;;11.07;5.20;;;16.60;99.90;;;;;;4973621;28;20205;-86
2022/10/05 01:56:41;;;;;;;4.93;4.53;;;16.50;99.90;;;;;;5009746;28;20266;-89
2022/10/05 01:59:32;;;;;;;10.85;6.15;;;16.50;99.90;;;;;;5014566;28;20272;-89
2022/10/05 02:02:06;;;;;;;6.22;5.63;;;16.40;99.90;;;;;;5014884;28;20192;-89
2022/10/05 02:04:41;;;;;;;8.82;5.38;;;16.20;99.90;;;;;;5013107;28;20179;-90
2022/10/05 02:07:15;;;;;;;10.23;5.10;;;16.20;99.90;;;;;;5014546;28;20239;-79
2022/10/05 02:09:57;;;;;;;7.28;6.07;;;16.00;99.90;;;;;;5013216;28;20251;-79
2022/10/05 02:12:26;;;;;;;11.23;5.68;;;16.10;99.90;;;;;;5014008;28;20193;-90
2022/10/05 02:14:57;;;;;;;7.10;6.40;;;16.00;99.90;;;;;;5014113;28;20685;-89
2022/10/05 02:17:29;;;;;;;13.20;6.05;;;16.00;99.90;;;;;;5013902;28;20184;-78
2022/10/05 02:20:00;;;;;;;8.88;5.53;;;16.00;99.90;;;;;;5014049;28;20188;-87
2022/10/05 02:22:32;;;;;;;12.95;6.70;;;15.80;99.90;;;;;;5013538;28;20188;-83
2022/10/05 02:25:12;;;;;;;6.72;6.00;;;15.80;99.90;;;;;;5013734;28;20215;-88
2022/10/05 02:27:47;;;;;;;8.52;6.28;;;16.10;99.90;;;;;;5013082;28;20214;-91
2022/10/05 02:30:15;;;;;;;10.13;6.93;;;16.20;99.90;;;;;;5014291;28;20192;-90
2022/10/05 02:32:48;;;;;;;7.78;6.60;;;16.10;99.90;;;;;;5014045;28;20172;-86
2022/10/05 02:35:17;;;;;;;11.10;6.75;;;15.90;99.90;;;;;;5014821;28;20172;-89
2022/10/05 02:37:53;;;;;;;9.40;7.00;;;15.70;99.90;;;;;;5014394;28;20215;-88
2022/10/05 02:40:43;;;;;;;9.50;6.53;;;15.80;99.90;;;;;;5013184;28;20179;-89
2022/10/05 02:43:21;;;;;;;8.82;7.10;;;15.80;99.90;;;;;;5014279;28;20173;-90
2022/10/05 02:46:04;;;;;;;7.88;7.05;;;15.90;99.90;;;;;;5014131;28;20246;-90
2022/10/05 02:49:02;;;;;;;8.55;7.57;;;16.00;99.90;;;;;;5012739;28;20187;-84
2022/10/05 02:51:31;;;;;;;7.90;6.85;;;15.90;99.90;;;;;;5012266;28;20200;-88
2022/10/05 02:54:19;;;;;;;8.27;7.35;;;15.80;99.90;;;;;;5013510;28;20172;-89
2022/10/05 02:57:22;;;;;;;6.53;6.00;;;15.70;99.90;;;;;;5013552;28;20172;-90
2022/10/05 03:00:05;;;;;;;10.20;5.72;;;15.80;99.90;;;;;;4980424;28;20205;-88
2022/10/05 03:02:50;;;;;;;7.63;5.70;;;15.90;99.90;;;;;;5014064;28;20191;-89
2022/10/05 03:05:34;;;;;;;8.73;6.85;;;15.80;99.90;;;;;;5013318;28;20165;-89
2022/10/05 03:08:07;;;;;;;6.60;5.95;;;15.80;99.90;;;;;;5016886;28;20692;-88
2022/10/05 03:10:47;;;;;;;8.32;6.50;;;15.70;99.90;;;;;;5017905;28;20196;-84
2022/10/05 03:13:34;;;;;;;5.65;4.60;;;15.60;99.90;;;;;;5017739;28;20168;-85
2022/10/05 03:16:09;;;;;;;5.53;4.70;;;15.90;99.90;;;;;;5017556;28;20168;-88
2022/10/05 03:18:37;;;;;;;7.32;4.53;;;16.00;99.90;;;;;;5017080;28;20179;-87
2022/10/05 03:21:17;;;;;;;5.45;4.82;;;15.90;99.90;;;;;;5017679;28;20202;-87
2022/10/05 03:24:00;;;;;;;10.80;5.20;;;15.90;99.90;;;;;;5017273;28;20171;-90
2022/10/05 03:26:49;;;;;;;6.30;4.07;;;15.90;99.90;;;;;;5032392;28;20195;-89
2022/10/05 03:29:21;;;;;;;6.00;5.40;;;15.70;99.90;;;;;;5016201;28;20176;-86
2022/10/05 03:32:13;;;;;;;8.48;5.45;;;15.70;99.90;;;;;;5018796;28;20188;-87
2022/10/05 03:35:09;;;;;;;6.03;4.97;;;15.80;99.90;;;;;;5017202;28;20172;-89
2022/10/05 03:37:48;;;;;;;4.95;4.45;;;15.90;99.90;;;;;;5009107;28;20195;-89
2022/10/05 03:40:45;;;;;;;6.72;4.53;;;15.90;99.90;;;;;;5017094;28;20184;-91
2022/10/05 03:43:35;;;;;;;6.88;4.20;;;15.90;99.90;;;;;;5016896;28;20203;-87
2022/10/05 03:46:30;;;;;;;7.45;4.97;;;15.90;99.90;;;;;;5016803;28;20172;-90
2022/10/05 03:49:11;;;;;;;5.30;4.75;;;15.90;99.90;;;;;;5016871;28;20168;-87
2022/10/05 03:51:46;;;;;;;4.68;4.18;;;16.00;99.90;;;;;;5016973;28;20669;-86
2022/10/05 03:54:39;;;;;;;12.15;6.65;;;15.90;99.90;;;;;;5016500;28;20176;-83
2022/10/05 03:57:13;;;;;;;3.97;3.67;;;15.90;99.90;;;;;;5016048;28;20508;-79
2022/10/05 04:00:04;;;;;;;11.95;3.05;;;15.90;99.90;;;;;;5015607;28;20279;-85
2022/10/05 04:02:49;;;;;;;3.47;2.90;;;16.00;99.90;;;;;;5015116;28;20243;-88
2022/10/05 04:05:27;;;;;;;3.63;3.28;;;16.00;99.90;;;;;;5016878;28;20179;-86
2022/10/05 04:08:07;;;;;;;4.10;2.63;;;16.00;99.90;;;;;;5016156;28;20775;-85
2022/10/05 04:10:50;;;;;;;3.13;2.83;;;16.10;99.90;;;;;;5015861;28;20188;-86
2022/10/05 04:13:34;;;;;;;5.30;2.85;;;15.90;99.90;;;;;;5016150;28;20251;-89
2022/10/05 04:16:07;;;;;;;2.45;2.25;;;15.90;99.90;;;;;;5016671;28;20273;-88
2022/10/05 04:18:43;;;;;;;2.83;2.63;;;15.80;99.90;;;;;;5016644;28;20187;-91
2022/10/05 04:21:18;;;;;;;7.00;2.88;;;15.80;99.90;;;;;;5016426;28;20185;-89
2022/10/05 04:24:02;;;;;;;3.92;3.17;;;15.90;99.90;;;;;;5016219;28;20172;-89
2022/10/05 04:26:37;;;;;;;2.95;2.65;;;16.10;99.90;;;;;;5016636;28;20196;-88
2022/10/05 04:29:25;;;;;;;2.53;2.33;;;15.90;99.90;;;;;;5016621;28;20160;-88
2022/10/05 04:31:59;;;;;;;3.22;2.67;;;16.10;99.90;;;;;;5016494;28;20228;-89
2022/10/05 04:35:00;;;;;;;2.75;2.33;;;16.10;99.90;;;;;;5016411;28;20245;-90
2022/10/05 04:37:42;;;;;;;8.43;2.28;;;16.10;99.90;;;;;;5015720;28;20326;-86
2022/10/05 04:40:14;;;;;;;3.05;2.42;;;16.20;99.90;;;;;;5015876;28;20169;-90
2022/10/05 04:43:14;;;;;;;4.78;2.70;;;16.30;99.90;;;;;;5014853;28;20165;-89
2022/10/05 04:45:57;;;;;;;3.67;3.00;;;16.10;99.90;;;;;;5016348;28;20615;-90
2022/10/05 04:48:38;;;;;;;4.28;2.75;;;16.00;99.90;;;;;;5016209;28;20305;-90
2022/10/05 04:51:40;;;;;;;3.75;2.95;;;16.00;99.90;;;;;;5015847;28;20999;-89
2022/10/05 04:54:25;;;;;;;3.92;2.97;;;16.00;99.90;;;;;;5015552;28;20180;-85
2022/10/05 04:57:04;;;;;;;7.18;3.40;;;16.10;99.90;;;;;;5014809;28;20207;-90
2022/10/05 05:00:04;;;;;;;4.90;3.47;;;16.00;99.90;;;;;;5015043;28;20583;-89
2022/10/05 05:02:54;;;;;;;5.38;3.63;;;16.10;99.90;;;;;;5014971;28;20192;-88
2022/10/05 05:05:53;;;;;;;4.35;3.72;;;16.10;99.90;;;;;;5015309;28;20177;-85
2022/10/05 05:08:28;;;;;;;5.05;2.88;;;16.00;99.90;;;;;;5015458;28;20205;-85
2022/10/05 05:11:08;;;;;;;5.90;4.32;;;16.10;99.90;;;;;;5015022;28;20195;-84
2022/10/05 05:13:58;;;;;;;6.57;3.95;;;16.30;99.90;;;;;;5015644;28;20665;-79
2022/10/05 05:16:44;;;;;;;6.30;3.30;;;16.30;99.90;;;;;;5013665;28;20173;-79
2022/10/05 05:19:36;;;;;;;9.60;3.53;;;16.20;99.90;;;;;;5015107;28;20627;-88
2022/10/05 05:22:19;;;;;;;4.00;2.88;;;16.20;99.90;;;;;;5014238;28;20220;-86
2022/10/05 05:25:10;;;;;;;10.32;3.60;;;16.10;99.90;;;;;;5014916;28;20319;-79
2022/10/05 05:27:45;;;;;;;3.33;3.00;;;16.30;99.90;;;;;;5015390;28;20204;-88
2022/10/05 05:30:41;;;;;;;3.72;3.05;;;16.40;99.90;;;;;;5015238;28;20163;-81
2022/10/05 05:33:23;;;;;;;4.72;3.22;;;16.30;99.90;;;;;;5015196;28;20168;-86
2022/10/05 05:36:08;;;;;;;4.13;2.85;;;16.40;99.90;;;;;;5014004;28;20251;-88
2022/10/05 05:38:56;;;;;;;4.93;3.35;;;16.30;99.90;;;;;;5015957;28;20215;-87
2022/10/05 05:41:52;;;;;;;5.90;3.03;;;16.30;99.90;;;;;;5028814;28;20188;-80
2022/10/05 05:44:24;;;;;;;7.78;3.03;;;16.20;99.90;;;;;;5027979;28;20203;-82
2022/10/05 05:47:11;;;;;;;3.15;2.70;;;16.30;99.90;;;;;;5030493;28;20208;-87
2022/10/05 05:49:59;;;;;;;4.28;2.58;;;16.20;99.90;;;;;;5017952;28;20169;-89
2022/10/05 05:52:38;;;;;;;7.47;2.95;;;16.10;99.90;;;;;;5015736;28;20193;-89
2022/10/05 05:55:23;;;;;;;2.97;2.45;;;16.10;99.90;;;;;;5015206;28;20263;-89
2022/10/05 05:58:04;;;;;;;8.45;2.70;;;16.10;99.90;;;;;;5015199;28;20171;-88
2022/10/05 06:00:58;;;;;;;3.72;2.47;;;16.10;99.90;;;;;;5016286;28;20521;-89
2022/10/05 06:03:33;;;;;;;9.35;2.92;;;16.30;99.90;;;;;;5015322;28;20164;-86
2022/10/05 06:06:03;;;;;;;3.92;3.00;;;16.40;99.90;;;;;;5014203;28;20176;-87
2022/10/05 06:08:34;;;;;;;6.30;2.47;;;16.40;99.90;;;;;;5015331;28;20681;-89
2022/10/05 06:11:10;;;;;;;5.40;2.75;;;16.40;99.90;;;;;;5014518;28;20177;-86
2022/10/05 06:13:39;;;;;;;8.60;2.38;;;16.50;99.90;;;;;;5015505;28;20182;-87
2022/10/05 06:16:13;;;;;;;4.63;2.53;;;16.50;99.90;;;;;;5014874;28;20782;-89
2022/10/05 06:18:45;;;;;;;3.30;2.38;;;16.50;99.90;;;;;;5014925;28;20184;-90
2022/10/05 06:21:28;;;;;;;2.53;2.33;;;16.50;99.90;;;;;;5014946;28;20212;-87
2022/10/05 06:23:57;;;;;;;8.77;2.47;;;16.50;99.90;;;;;;5015057;28;20185;-89
2022/10/05 06:26:47;;;;;;;6.03;3.00;;;16.60;99.90;;;;;;5014229;28;20200;-79
2022/10/05 06:29:19;;;;;;;7.97;2.85;;;16.70;99.90;;;;;;5013259;28;20178;-86
2022/10/05 06:32:03;;;;;;;11.02;2.17;;;16.60;99.90;;;;;;5014379;28;20192;-89
2022/10/05 06:34:34;;;;;;;3.78;2.40;;;16.60;99.90;;;;;;5011406;28;20199;-86
2022/10/05 06:37:41;;;;;;;3.67;2.63;;;16.70;99.90;;;;;;4994775;28;20221;-94
2022/10/05 06:40:18;;;;;;;3.60;2.40;;;16.70;99.90;;;;;;4980584;28;20671;-80
2022/10/05 06:43:04;;;;;;;4.63;2.33;;;16.70;99.90;;;;;;4998457;28;20199;-88
2022/10/05 06:46:15;;;;;;;4.78;2.40;;;16.70;99.90;;;;;;5000191;28;20662;-87
2022/10/05 06:48:57;;;;;;;2.75;2.17;;;16.90;99.90;;;;;;4957481;29;20191;-85
2022/10/05 06:51:39;;;;;;;7.32;2.50;;;17.10;99.90;;;;;;4956640;29;20623;-84
2022/10/05 06:54:26;;;;;;;5.80;3.45;;;17.10;99.90;;;;;;4978851;28;20188;-84
2022/10/05 06:57:09;;;;;;;2.20;2.00;;;17.10;99.90;;;;;;4997773;28;20188;-84
2022/10/05 07:00:04;;;;;;;3.08;2.30;;;17.00;99.90;;;;;;4998046;28;20173;-89
2022/10/05 07:02:53;;;;;;;4.60;2.22;;;16.90;99.90;;;;;;4997582;28;20262;-80
2022/10/05 07:05:58;;;;;;;2.92;2.50;;;16.90;99.90;;;;;;4998063;28;20213;-88
2022/10/05 07:08:56;;;;;;;4.85;1.80;;;17.10;99.90;;;;;;4962266;28;20214;-88
2022/10/05 07:11:32;;;;;;;3.38;2.50;;;17.20;99.90;;;;;;5002415;28;20181;-89
2022/10/05 07:14:27;;;;;;;2.38;2.15;;;17.30;99.90;;;;;;5002152;28;20181;-89
2022/10/05 07:17:14;;;;;;;2.38;2.22;;;17.40;99.90;;;;;;4994165;28;20256;-78
2022/10/05 07:20:02;;;;;;;5.05;2.15;;;17.30;99.90;;;;;;4978079;28;20197;-81
2022/10/05 07:22:46;;;;;;;5.80;2.33;;;17.30;99.90;;;;;;4977488;28;20190;-82
2022/10/05 07:25:20;;;;;;;3.38;1.95;;;17.30;99.90;;;;;;4979275;28;20241;-86
2022/10/05 07:27:57;;;;;;;3.95;2.17;;;17.50;99.90;;;;;;4993484;28;20286;-90
2022/10/05 07:30:23;;;;;;;3.20;2.38;;;17.60;99.90;;;;;;4994584;28;20243;-87
2022/10/05 07:33:22;;;;;;;4.63;2.30;;;17.60;99.90;;;;;;4997307;28;20196;-85
2022/10/05 07:39:39;;;;;;;1.88;1.60;;;17.50;99.90;;;;;;4995809;28;20176;-79
2022/10/05 07:42:30;;;;;;;3.78;2.22;;;17.50;99.90;;;;;;5000465;28;20634;-81
2022/10/05 07:45:12;;;;;;;3.75;2.03;;;17.50;99.90;;;;;;5015274;28;20252;-86
2022/10/05 07:47:44;;;;;;;5.22;2.25;;;17.60;99.90;;;;;;5017104;28;20232;-82
2022/10/05 07:50:22;;;;;;;8.35;2.13;;;17.60;99.90;;;;;;5015314;28;20626;-80
2022/10/05 07:52:56;;;;;;;2.47;2.28;;;17.60;99.90;;;;;;5014065;28;20173;-82
2022/10/05 07:55:25;;;;;;;5.22;2.42;;;17.80;99.90;;;;;;5013853;28;20181;-84
2022/10/05 07:58:05;;;;;;;2.40;2.20;;;17.90;99.90;;;;;;5013963;28;20508;-81
2022/10/05 08:00:48;;;;;;;3.42;2.15;;;18.00;99.90;;;;;;5015111;28;20223;-81
2022/10/05 08:03:30;;;;;;;2.65;1.90;;;17.70;99.90;;;;;;5013744;28;20192;-81
2022/10/05 08:05:58;;;;;;;1.98;1.80;;;17.70;99.90;;;;;;5013953;28;20168;-81
2022/10/05 08:08:56;;;;;;;2.17;1.90;;;17.90;99.90;;;;;;5015333;28;20219;-83
2022/10/05 08:11:29;;;;;;;2.30;2.00;;;18.00;99.90;;;;;;5015029;28;20222;-78
2022/10/05 08:14:27;;;;;;;1.73;1.58;;;18.00;99.90;;;;;;5012989;28;20209;-80
2022/10/05 08:16:56;;;;;;;4.90;1.98;;;17.90;99.90;;;;;;5014818;28;20227;-78
2022/10/05 08:19:50;;;;;;;3.15;1.67;;;17.90;99.90;;;;;;5014003;28;20571;-80
2022/10/05 08:22:28;;;;;;;3.60;2.38;;;18.00;99.90;;;;;;5015177;28;20188;-78
2022/10/05 08:25:05;;;;;;;1.80;1.70;;;18.00;99.90;;;;;;5014101;28;20490;-84
2022/10/05 08:27:44;;;;;;;4.35;1.40;;;17.80;99.90;;;;;;4997271;28;20274;-88
2022/10/05 08:30:12;;;;;;;3.25;1.77;;;17.80;99.90;;;;;;5015467;28;20194;-83
2022/10/05 08:33:01;;;;;;;2.17;1.75;;;18.00;99.90;;;;;;5015336;28;20169;-89
2022/10/05 08:35:42;;;;;;;2.83;1.75;;;18.10;99.90;;;;;;5013845;28;20249;-79
2022/10/05 08:38:23;;;;;;;2.58;1.80;;;18.00;99.90;;;;;;5014521;28;20192;-78
2022/10/05 08:41:11;;;;;;;2.97;1.70;;;18.00;99.90;;;;;;5012935;28;20224;-81
2022/10/05 08:43:36;;;;;;;5.18;2.38;;;18.00;99.90;;;;;;5014689;28;20172;-82
2022/10/05 08:46:20;;;;;;;3.83;2.22;;;18.10;99.90;;;;;;5014691;28;20175;-84
2022/10/05 08:49:08;;;;;;;4.22;2.28;;;18.10;99.90;;;;;;5015239;28;20176;-82
2022/10/05 08:52:00;;;;;;;3.92;2.35;;;17.80;99.90;;;;;;5015266;28;20193;-87
2022/10/05 08:55:04;;;;;;;3.08;2.13;;;17.80;99.90;;;;;;5015458;28;20164;-82
2022/10/05 08:58:04;;;;;;;4.97;1.92;;;18.00;99.90;;;;;;5003118;28;20546;-89
2022/10/05 09:01:11;;;;;;;2.22;1.95;;;18.10;99.90;;;;;;5014213;28;20187;-84
2022/10/05 09:03:54;;;;;;;4.78;2.15;;;18.10;99.90;;;;;;4983749;28;20196;-85
2022/10/05 09:06:49;;;;;;;2.55;2.00;;;18.30;99.90;;;;;;5016261;28;20172;-85
2022/10/05 09:09:18;;;;;;;5.00;3.25;;;18.60;99.90;;;;;;5015672;28;20176;-88
2022/10/05 09:12:21;;;;;;;6.57;2.92;;;18.70;99.90;;;;;;5014963;28;20193;-84
2022/10/05 09:14:55;;;;;;;5.45;2.80;;;18.80;99.90;;;;;;5015073;28;20164;-84
2022/10/05 09:17:59;;;;;;;5.20;2.47;;;18.80;99.90;;;;;;5014953;28;20234;-84
2022/10/05 09:20:43;;;;;;;2.85;2.20;;;18.70;99.90;;;;;;5016038;28;20176;-93
2022/10/05 09:23:36;;;;;;;7.40;2.50;;;19.00;99.90;;;;;;5015875;28;20290;-85
2022/10/05 09:26:26;;;;;;;7.00;2.60;;;19.10;99.90;;;;;;5016045;28;20188;-91
2022/10/05 09:29:10;;;;;;;3.35;2.78;;;19.00;99.90;;;;;;5016769;28;20188;-90
2022/10/05 09:31:50;;;;;;;2.92;2.45;;;18.90;99.90;;;;;;5034050;28;20199;-81
2022/10/05 09:34:37;;;;;;;3.75;3.00;;;19.10;99.90;;;;;;5033655;28;20183;-87
2022/10/05 09:37:38;;;;;;;3.33;2.38;;;19.10;99.90;;;;;;5032908;28;20168;-82
2022/10/05 09:40:23;;;;;;;4.93;2.40;;;19.40;99.90;;;;;;5032183;28;20182;-86
2022/10/05 09:42:57;;;;;;;2.45;2.03;;;19.50;99.90;;;;;;5032313;28;20168;-88
2022/10/05 09:45:47;;;;;;;4.68;2.40;;;19.70;99.90;;;;;;5033508;28;20175;-77
2022/10/05 09:48:53;;;;;;;1.70;1.60;;;19.60;99.90;;;;;;5030487;28;20214;-82
2022/10/05 09:51:34;;;;;;;2.35;1.67;;;19.50;99.90;;;;;;5017638;28;20199;-81
2022/10/05 09:54:19;;;;;;;8.50;2.05;;;19.60;99.90;;;;;;5016310;28;20196;-85
2022/10/05 09:56:55;;;;;;;2.85;2.15;;;19.60;99.90;;;;;;5014931;28;20176;-83
2022/10/05 09:59:31;;;;;;;3.28;1.63;;;19.70;99.90;;;;;;5015925;28;20207;-82
2022/10/05 10:02:31;;;;;;;8.00;1.52;;;19.60;99.90;;;;;;4998191;28;20202;-81
2022/10/05 10:05:15;;;;;;;2.15;1.40;;;19.60;99.90;;;;;;5015802;28;20168;-78
2022/10/05 10:08:08;;;;;;;3.13;2.15;;;19.50;99.90;;;;;;5013480;28;20247;-79
2022/10/05 10:10:55;;;;;;;1.50;1.40;;;19.40;99.90;;;;;;4993034;28;20200;-78
2022/10/05 10:13:45;;;;;;;1.75;1.65;;;19.60;99.90;;;;;;4992472;28;20180;-77
2022/10/05 10:16:23;;;;;;;2.53;1.98;;;19.60;99.90;;;;;;4992984;28;20174;-78
2022/10/05 10:19:11;;;;;;;5.93;1.80;;;19.60;99.90;;;;;;4993169;28;20255;-78
2022/10/05 10:22:05;;;;;;;11.02;1.70;;;19.70;99.90;;;;;;4993333;28;20244;-92
2022/10/05 10:25:06;;;;;;;3.13;1.92;;;19.60;99.90;;;;;;4994063;28;20280;-86
2022/10/05 10:27:43;;;;;;;3.42;1.70;;;19.60;99.90;;;;;;4992283;28;20342;-78
2022/10/05 10:30:52;;;;;;;6.82;1.80;;;19.60;99.90;;;;;;4992544;28;20161;-79
2022/10/05 10:33:54;;;;;;;2.13;1.92;;;19.70;99.90;;;;;;4970717;28;20223;-79
2022/10/05 10:36:32;;;;;;;3.42;1.88;;;20.00;99.90;;;;;;4992666;28;20169;-79
2022/10/05 10:39:01;;;;;;;2.85;1.70;;;20.10;99.90;;;;;;4993016;28;20165;-78
2022/10/05 10:42:00;;;;;;;10.63;2.53;;;20.30;99.90;;;;;;4992612;28;20197;-82
2022/10/05 10:44:46;;;;;;;2.92;1.92;;;20.40;99.90;;;;;;4991670;28;20546;-78
2022/10/05 10:47:37;;;;;;;2.78;1.60;;;20.30;99.90;;;;;;4992588;28;20212;-78
2022/10/05 10:50:38;;;;;;;4.22;1.60;;;20.40;99.90;;;;;;4986193;28;20220;-79
2022/10/05 10:53:12;;;;;;;2.15;1.70;;;20.60;99.90;;;;;;4991449;28;20212;-78
2022/10/05 10:55:53;;;;;;;3.38;1.90;;;20.50;99.90;;;;;;4992705;28;20247;-78
2022/10/05 10:58:40;;;;;;;7.00;1.55;;;20.40;99.90;;;;;;4992796;28;20161;-79
2022/10/05 11:01:39;;;;;;;5.78;1.77;;;20.40;99.90;;;;;;4991215;28;20247;-79
2022/10/05 11:04:34;;;;;;;5.90;1.83;;;20.30;99.90;;;;;;4991428;28;20678;-78
2022/10/05 11:07:08;;;;;;;3.35;1.48;;;20.40;99.90;;;;;;4992360;28;20209;-77
2022/10/05 11:09:52;;;;;;;2.40;1.52;;;20.30;99.90;;;;;;4992790;28;20272;-79
2022/10/05 11:12:43;;;;;;;1.30;1.20;;;20.00;99.90;;;;;;4990829;28;20239;-78
2022/10/05 11:15:51;;;;;;;10.75;1.30;;;19.80;99.90;;;;;;4991445;28;20567;-78
2022/10/05 11:18:48;;;;;;;1.48;1.30;;;19.60;99.90;;;;;;4992605;28;20173;-78
2022/10/05 11:21:32;;;;;;;1.95;1.00;;;19.60;99.90;;;;;;4989287;28;20209;-78
2022/10/05 11:24:10;;;;;;;4.80;1.67;;;19.90;99.90;;;;;;4992616;28;20714;-78
2022/10/05 11:26:54;;;;;;;1.60;1.50;;;19.90;99.90;;;;;;4991613;28;20701;-78
2022/10/05 11:29:35;;;;;;;1.60;1.20;;;20.20;99.90;;;;;;4995311;28;20179;-78
2022/10/05 11:32:03;;;;;;;1.67;1.27;;;20.30;99.90;;;;;;4994815;28;20722;-78
2022/10/05 11:34:55;;;;;;;3.60;1.10;;;20.50;99.90;;;;;;5012329;23;20271;-77
2022/10/05 11:37:30;;;;;;;1.60;1.45;;;20.50;99.90;;;;;;5011071;28;20678;-76
2022/10/05 11:40:13;;;;;;;3.53;1.30;;;20.60;99.90;;;;;;4995850;28;20528;-76
2022/10/05 11:43:02;;;;;;;7.63;1.35;;;20.70;99.90;;;;;;4975921;28;20249;-77
2022/10/05 11:45:49;;;;;;;3.28;1.55;;;21.00;99.90;;;;;;4976030;28;20189;-77
2022/10/05 11:48:38;;;;;;;1.15;0.95;;;21.10;99.90;;;;;;4976082;28;20284;-76
2022/10/05 11:51:28;;;;;;;5.70;1.33;;;21.20;99.90;;;;;;4975901;28;20186;-76
2022/10/05 11:54:22;;;;;;;6.50;1.25;;;21.20;99.90;;;;;;4976273;28;20273;-76
2022/10/05 11:57:03;;;;;;;6.80;1.48;;;21.20;99.90;;;;;;4974698;28;20532;-76
2022/10/05 11:59:42;;;;;;;1.92;1.35;;;21.30;99.90;;;;;;4975597;28;20220;-76
2022/10/05 12:02:33;;;;;;;3.28;1.33;;;21.30;99.90;;;;;;4974563;28;20663;-76
2022/10/05 12:05:39;;;;;;;1.52;0.98;;;21.20;99.90;;;;;;4977225;28;20193;-81
2022/10/05 12:08:08;;;;;;;4.00;1.20;;;21.10;99.90;;;;;;4976975;28;20224;-81
2022/10/05 12:10:51;;;;;;;7.38;1.40;;;20.90;99.90;;;;;;4975713;28;20193;-82
2022/10/05 12:13:50;;;;;;;6.30;1.33;;;20.90;99.90;;;;;;4977187;28;20810;-80
2022/10/05 12:16:19;;;;;;;5.93;1.25;;;20.70;99.90;;;;;;4991670;28;20170;-80
2022/10/05 12:19:10;;;;;;;4.32;0.98;;;20.50;99.90;;;;;;4975682;28;20255;-78
2022/10/05 12:22:02;;;;;;;1.25;0.98;;;20.20;99.90;;;;;;4975581;28;20202;-80
2022/10/05 12:24:34;;;;;;;6.35;1.30;;;20.20;99.90;;;;;;4968513;28;20178;-79
2022/10/05 12:27:19;;;;;;;2.28;1.15;;;20.20;99.90;;;;;;4976302;28;20202;-77
2022/10/05 12:29:56;;;;;;;1.58;1.00;;;20.30;99.90;;;;;;4975899;28;20635;-78
2022/10/05 12:32:52;;;;;;;6.82;1.23;;;20.30;99.90;;;;;;4975810;28;20201;-77
2022/10/05 12:35:32;;;;;;;1.98;1.38;;;20.30;99.90;;;;;;4976050;28;20660;-80
2022/10/05 12:38:24;;;;;;;2.10;1.10;;;20.20;99.90;;;;;;4980240;28;20166;-81
2022/10/05 12:41:20;;;;;;;2.72;1.05;;;20.20;99.90;;;;;;4989610;28;20672;-81
2022/10/05 12:44:10;;;;;;;1.40;1.20;;;20.10;99.90;;;;;;4977222;28;20182;-85
2022/10/05 12:47:10;;;;;;;2.40;1.27;;;20.10;99.90;;;;;;4975500;28;20715;-83
2022/10/05 12:49:36;;;;;;;1.77;1.30;;;20.20;99.90;;;;;;4975936;28;20718;-83
2022/10/05 12:52:13;;;;;;;1.90;1.10;;;20.30;99.90;;;;;;4976595;28;20214;-83
2022/10/05 12:54:53;;;;;;;7.78;1.55;;;20.40;99.90;;;;;;4974989;28;20173;-77
2022/10/05 12:57:21;;;;;;;1.85;1.50;;;20.50;99.90;;;;;;4974936;28;20173;-77
2022/10/05 12:59:56;;;;;;;5.22;1.98;;;20.60;99.90;;;;;;4975086;28;20174;-77
2022/10/05 13:02:26;;;;;;;5.07;1.17;;;20.60;99.90;;;;;;4975181;28;20659;-77
2022/10/05 13:05:03;;;;;;;1.50;0.98;;;20.40;99.90;;;;;;4974871;28;20174;-76
2022/10/05 13:07:44;;;;;;;5.32;1.15;;;20.30;99.90;;;;;;4974721;28;20209;-77
2022/10/05 13:10:36;;;;;;;14.27;1.23;;;20.30;99.90;;;;;;4973639;28;20743;-77
2022/10/05 13:13:36;;;;;;;1.98;1.08;;;20.00;99.90;;;;;;4974367;28;20213;-76
2022/10/05 13:16:22;;;;;;;1.15;1.05;;;20.00;99.90;;;;;;4974582;28;20170;-76
2022/10/05 13:19:21;;;;;;;4.90;1.42;;;19.80;99.90;;;;;;4974735;28;20185;-76
2022/10/05 13:22:15;;;;;;;1.48;1.10;;;19.80;99.90;;;;;;4973021;28;20194;-76
2022/10/05 13:25:06;;;;;;;3.22;0.80;;;19.60;99.90;;;;;;4974634;28;20177;-76
2022/10/05 13:27:47;;;;;;;1.13;0.82;;;19.30;99.90;;;;;;4973984;28;20234;-75
2022/10/05 13:30:15;;;;;;;1.55;1.13;;;19.30;99.90;;;;;;4975143;28;20165;-76
2022/10/05 13:32:46;;;;;;;3.10;0.85;;;19.30;99.90;;;;;;4976823;28;20616;-76
2022/10/05 13:35:30;;;;;;;3.97;0.98;;;19.30;99.90;;;;;;4976490;28;20185;-76
2022/10/05 13:38:01;;;;;;;3.45;1.15;;;19.20;99.90;;;;;;4973545;28;20180;-75
2022/10/05 13:41:04;;;;;;;2.67;1.25;;;19.10;99.90;;;;;;4976341;28;20590;-76
2022/10/05 13:44:03;;;;;;;2.28;0.90;;;18.90;99.90;;;;;;4974273;28;20173;-76
2022/10/05 13:46:37;;;;;;;1.33;1.08;;;18.90;99.90;;;;;;4973688;28;20632;-76
2022/10/05 13:49:15;;;;;;;1.65;1.23;;;18.80;99.90;;;;;;4973765;28;20231;-76
2022/10/05 13:52:07;;;;;;;1.00;0.90;;;18.70;99.90;;;;;;4988590;28;20281;-76
2022/10/05 13:54:45;;;;;;;1.83;1.13;;;18.90;99.90;;;;;;4973123;28;20186;-76
2022/10/05 13:57:45;;;;;;;1.35;1.05;;;18.70;99.90;;;;;;4956541;28;20174;-76
2022/10/05 14:00:21;;;;;;;1.65;1.10;;;18.80;99.90;;;;;;4975134;28;20178;-76
2022/10/05 14:02:50;;;;;;;2.70;1.13;;;18.90;99.90;;;;;;4974300;28;20169;-76
2022/10/05 14:05:23;;;;;;;2.65;1.33;;;19.00;99.90;;;;;;4974662;28;20197;-76
2022/10/05 14:07:51;;;;;;;5.47;1.40;;;18.90;99.90;;;;;;4975015;28;20289;-76
2022/10/05 14:10:32;;;;;;;1.77;1.10;;;18.90;99.90;;;;;;4974885;28;20170;-76
2022/10/05 14:12:59;;;;;;;1.60;1.30;;;18.90;99.90;;;;;;4974919;28;20177;-75